81CL weather

Sandhill Heliport
Orinda, California, United States

Public forecast

Using degrees Fahrenheit for public forecast. Weather courtesy of forecast.io.

Closest aviation weather report (METAR) to Sandhill Heliport

Closest report is Buchanan Field, 7.8 nm (14.4 km) ENE. Retrieved 2019/10/18 11:53 UTC (42 minutes ago):

KCCR 181153Z AUTO 16004KT 10SM CLR 10/06 A3004 RMK AO2 SLP158 T01000056 10150 20094 51002

Closest aviation forecast (TAF) to Sandhill Heliport

Forecast is more than 12 hours old.

Closest forecast is Buchanan Field, 7.8 nm (14.4 km) ENE. Retrieved 2016/02/08 00:21 UTC (4 years ago):

TAF KCCR 082320Z 0900/0924 06006KT P6SM SKC FM090600 VRB03KT P6SM SKC FM091800 04009KT P6SM SKC